RYR784B GMFO-LFBO
Flight info
| Callsign | RYR784B |
|---|---|
| Flight time | 1h 45m |
| Altitude | 38000 |
| Route | DIGEX DCT AMR N860 VLC L34 CASIM N608 GIROM DCT ASPET |
| Aircraft | B38M/M-SDE1FGHILORVWXY/HB1 |
Departure
| Time | 2026-04-14 20:03 |
|---|---|
| Airport | Oujda Angads Airport (GMFO) |
Arrival
| Time | 2026-04-14 21:48 |
|---|---|
| Airport | Toulouse-Blagnac Airport (LFBO) |
| Time | Latitude | Longitude | Altitude | Speed | Heading |
|---|---|---|---|---|---|
| 2026-04-14 19:34 | 34.78576 | -1.93942 | 1528 ft | 0 kts | 352° |
| 2026-04-14 19:55 | 34.78551 | -1.93937 | 1526 ft | 4 kts | 352° |
| 2026-04-14 19:55 | 34.78525 | -1.93933 | 1522 ft | 4 kts | 354° |
| 2026-04-14 19:55 | 34.78505 | -1.93933 | 1522 ft | 2 kts | 19° |
| 2026-04-14 19:56 | 34.78497 | -1.93940 | 1524 ft | 2 kts | 66° |
| 2026-04-14 19:56 | 34.78494 | -1.93946 | 1524 ft | 0 kts | 60° |
| 2026-04-14 19:58 | 34.78501 | -1.93932 | 1522 ft | 5 kts | 61° |
| 2026-04-14 19:58 | 34.78523 | -1.93886 | 1521 ft | 7 kts | 58° |
| 2026-04-14 19:59 | 34.78536 | -1.93822 | 1525 ft | 9 kts | 107° |
| 2026-04-14 19:59 | 34.78499 | -1.93757 | 1528 ft | 10 kts | 131° |
| 2026-04-14 19:59 | 34.78448 | -1.93689 | 1525 ft | 11 kts | 132° |
| 2026-04-14 19:59 | 34.78434 | -1.93603 | 1528 ft | 11 kts | 62° |
| 2026-04-14 20:00 | 34.78492 | -1.93531 | 1528 ft | 13 kts | 42° |
| 2026-04-14 20:00 | 34.78563 | -1.93454 | 1527 ft | 14 kts | 41° |
| 2026-04-14 20:00 | 34.78642 | -1.93369 | 1526 ft | 16 kts | 41° |
| 2026-04-14 20:00 | 34.78730 | -1.93275 | 1523 ft | 18 kts | 41° |
| 2026-04-14 20:01 | 34.78826 | -1.93174 | 1528 ft | 19 kts | 40° |
| 2026-04-14 20:01 | 34.78926 | -1.93070 | 1526 ft | 19 kts | 40° |
| 2026-04-14 20:01 | 34.79028 | -1.92963 | 1526 ft | 20 kts | 40° |
| 2026-04-14 20:01 | 34.79120 | -1.92865 | 1527 ft | 18 kts | 41° |
| 2026-04-14 20:02 | 34.79220 | -1.92786 | 1523 ft | 17 kts | 13° |
| 2026-04-14 20:02 | 34.79297 | -1.92857 | 1527 ft | 15 kts | 308° |
| 2026-04-14 20:02 | 34.79344 | -1.92923 | 1524 ft | 0 kts | 311° |
| 2026-04-14 20:02 | 34.79345 | -1.92924 | 1524 ft | 4 kts | 311° |
| 2026-04-14 20:03 | 34.79546 | -1.93206 | 1526 ft | 82 kts | 311° |
| 2026-04-14 20:03 | 34.80073 | -1.93944 | 1528 ft | 147 kts | 310° |
| 2026-04-14 20:03 | 34.80834 | -1.94993 | 1742 ft | 180 kts | 311° |
| 2026-04-14 20:03 | 34.81680 | -1.96162 | 2462 ft | 190 kts | 311° |
| 2026-04-14 20:04 | 34.82541 | -1.97442 | 3174 ft | 200 kts | 299° |
| 2026-04-14 20:04 | 34.82964 | -1.99073 | 3828 ft | 211 kts | 273° |
| 2026-04-14 20:04 | 34.82709 | -2.00911 | 4371 ft | 232 kts | 248° |
| 2026-04-14 20:04 | 34.81851 | -2.02587 | 5315 ft | 230 kts | 233° |
| 2026-04-14 20:05 | 34.80844 | -2.04065 | 6385 ft | 228 kts | 232° |
| 2026-04-14 20:05 | 34.79862 | -2.05634 | 7068 ft | 240 kts | 238° |
| 2026-04-14 20:05 | 34.78944 | -2.07394 | 7706 ft | 252 kts | 240° |
| 2026-04-14 20:05 | 34.77972 | -2.09206 | 8442 ft | 263 kts | 238° |
| 2026-04-14 20:06 | 34.76929 | -2.11102 | 9107 ft | 274 kts | 244° |
| 2026-04-14 20:06 | 34.76367 | -2.13335 | 9640 ft | 284 kts | 270° |
| 2026-04-14 20:06 | 34.76689 | -2.15679 | 10400 ft | 280 kts | 296° |
| 2026-04-14 20:06 | 34.77688 | -2.17752 | 10964 ft | 292 kts | 308° |
| 2026-04-14 20:07 | 34.78895 | -2.19836 | 11413 ft | 309 kts | 308° |
| 2026-04-14 20:07 | 34.80172 | -2.21997 | 12059 ft | 317 kts | 309° |
| 2026-04-14 20:07 | 34.81467 | -2.24162 | 12934 ft | 317 kts | 309° |
| 2026-04-14 20:07 | 34.82782 | -2.26337 | 13812 ft | 319 kts | 312° |
| 2026-04-14 20:08 | 34.84411 | -2.28123 | 14581 ft | 316 kts | 332° |
| 2026-04-14 20:08 | 34.86459 | -2.29080 | 15330 ft | 318 kts | 345° |
| 2026-04-14 20:08 | 34.88597 | -2.29824 | 16044 ft | 321 kts | 345° |
| 2026-04-14 20:08 | 34.90761 | -2.30552 | 16779 ft | 324 kts | 345° |
| 2026-04-14 20:09 | 34.92949 | -2.31273 | 17479 ft | 327 kts | 346° |
| 2026-04-14 20:09 | 34.95163 | -2.31992 | 18185 ft | 331 kts | 346° |
| 2026-04-14 20:09 | 34.97397 | -2.32711 | 18808 ft | 334 kts | 346° |
| 2026-04-14 20:09 | 34.99651 | -2.33434 | 19420 ft | 336 kts | 346° |
| 2026-04-14 20:10 | 35.01923 | -2.34162 | 20021 ft | 338 kts | 346° |
| 2026-04-14 20:10 | 35.04204 | -2.34893 | 20607 ft | 341 kts | 346° |
| 2026-04-14 20:10 | 35.06505 | -2.35630 | 21189 ft | 343 kts | 346° |
| 2026-04-14 20:10 | 35.08824 | -2.36374 | 21770 ft | 346 kts | 346° |
| 2026-04-14 20:11 | 35.11156 | -2.37122 | 22335 ft | 348 kts | 346° |
| 2026-04-14 20:11 | 35.13546 | -2.37603 | 22893 ft | 350 kts | 359° |
| 2026-04-14 20:11 | 35.15990 | -2.37453 | 23449 ft | 353 kts | 1° |
| 2026-04-14 20:11 | 35.18454 | -2.37322 | 23929 ft | 356 kts | 1° |
| 2026-04-14 20:12 | 35.20934 | -2.37172 | 24393 ft | 358 kts | 1° |
| 2026-04-14 20:12 | 35.23430 | -2.37012 | 24837 ft | 360 kts | 1° |
| 2026-04-14 20:12 | 35.25940 | -2.36845 | 25287 ft | 362 kts | 1° |
| 2026-04-14 20:12 | 35.28460 | -2.36675 | 25725 ft | 364 kts | 1° |
| 2026-04-14 20:13 | 35.30996 | -2.36503 | 26157 ft | 366 kts | 1° |
| 2026-04-14 20:13 | 35.33543 | -2.36330 | 26586 ft | 368 kts | 1° |
| 2026-04-14 20:13 | 35.36107 | -2.36155 | 27008 ft | 370 kts | 1° |
| 2026-04-14 20:13 | 35.38684 | -2.35979 | 27417 ft | 372 kts | 1° |
| 2026-04-14 20:14 | 35.41276 | -2.35803 | 27818 ft | 374 kts | 1° |
| 2026-04-14 20:14 | 35.43878 | -2.35625 | 28207 ft | 376 kts | 1° |
| 2026-04-14 20:14 | 35.46501 | -2.35447 | 28608 ft | 378 kts | 1° |
| 2026-04-14 20:14 | 35.49129 | -2.35267 | 29001 ft | 380 kts | 1° |
| 2026-04-14 20:15 | 35.51776 | -2.35086 | 29380 ft | 382 kts | 1° |
| 2026-04-14 20:15 | 35.54439 | -2.34904 | 29753 ft | 384 kts | 1° |
| 2026-04-14 20:15 | 35.57109 | -2.34721 | 30123 ft | 386 kts | 1° |
| 2026-04-14 20:15 | 35.59798 | -2.34537 | 30440 ft | 388 kts | 1° |
| 2026-04-14 20:16 | 35.62499 | -2.34352 | 30748 ft | 390 kts | 1° |
| 2026-04-14 20:16 | 35.65211 | -2.34166 | 31053 ft | 391 kts | 1° |
| 2026-04-14 20:16 | 35.67936 | -2.33979 | 31366 ft | 393 kts | 1° |
| 2026-04-14 20:16 | 35.70671 | -2.33791 | 31663 ft | 395 kts | 1° |
| 2026-04-14 20:17 | 35.73417 | -2.33602 | 31953 ft | 396 kts | 1° |
| 2026-04-14 20:17 | 35.76172 | -2.33413 | 32303 ft | 396 kts | 1° |
| 2026-04-14 20:17 | 35.78919 | -2.33224 | 32725 ft | 395 kts | 1° |
| 2026-04-14 20:17 | 35.81658 | -2.33035 | 33146 ft | 393 kts | 1° |
| 2026-04-14 20:18 | 35.84383 | -2.32848 | 33561 ft | 392 kts | 1° |
| 2026-04-14 20:18 | 35.87101 | -2.32660 | 33973 ft | 390 kts | 1° |
| 2026-04-14 20:18 | 35.89804 | -2.32474 | 34355 ft | 389 kts | 1° |
| 2026-04-14 20:18 | 35.92500 | -2.32287 | 34697 ft | 387 kts | 1° |
| 2026-04-14 20:19 | 35.95185 | -2.32102 | 35030 ft | 386 kts | 1° |
| 2026-04-14 20:19 | 35.97862 | -2.31917 | 35358 ft | 384 kts | 2° |
| 2026-04-14 20:19 | 36.00530 | -2.31732 | 35681 ft | 383 kts | 2° |
| 2026-04-14 20:19 | 36.03184 | -2.31549 | 35983 ft | 382 kts | 2° |
| 2026-04-14 20:20 | 36.05837 | -2.31365 | 36276 ft | 381 kts | 2° |
| 2026-04-14 20:20 | 36.08480 | -2.31181 | 36561 ft | 380 kts | 2° |
| 2026-04-14 20:20 | 36.11112 | -2.30999 | 36838 ft | 379 kts | 2° |
| 2026-04-14 20:20 | 36.13739 | -2.30817 | 37101 ft | 378 kts | 2° |
| 2026-04-14 20:21 | 36.16359 | -2.30634 | 37367 ft | 377 kts | 2° |
| 2026-04-14 20:21 | 36.18970 | -2.30453 | 37624 ft | 376 kts | 2° |
| 2026-04-14 20:21 | 36.21575 | -2.30272 | 37879 ft | 374 kts | 2° |
| 2026-04-14 20:21 | 36.24139 | -2.30093 | 38107 ft | 374 kts | 2° |
| 2026-04-14 20:22 | 36.26735 | -2.29913 | 38181 ft | 374 kts | 2° |
| 2026-04-14 20:22 | 36.31907 | -2.29552 | 38164 ft | 371 kts | 2° |
| 2026-04-14 20:23 | 36.37075 | -2.29191 | 38159 ft | 372 kts | 2° |
| 2026-04-14 20:23 | 36.42247 | -2.28829 | 38158 ft | 372 kts | 2° |
| 2026-04-14 20:24 | 36.47425 | -2.28467 | 38155 ft | 373 kts | 2° |
| 2026-04-14 20:24 | 36.52607 | -2.28104 | 38152 ft | 373 kts | 2° |
| 2026-04-14 20:25 | 36.57800 | -2.27740 | 38161 ft | 374 kts | 2° |
| 2026-04-14 20:25 | 36.62997 | -2.27375 | 38153 ft | 374 kts | 2° |
| 2026-04-14 20:26 | 36.68202 | -2.27008 | 38157 ft | 375 kts | 2° |
| 2026-04-14 20:26 | 36.73417 | -2.26641 | 38152 ft | 376 kts | 2° |
| 2026-04-14 20:27 | 36.78641 | -2.26273 | 38155 ft | 376 kts | 2° |
| 2026-04-14 20:27 | 36.83794 | -2.25295 | 38149 ft | 379 kts | 21° |
| 2026-04-14 20:28 | 36.88565 | -2.22362 | 38157 ft | 384 kts | 22° |
| 2026-04-14 20:28 | 36.93314 | -2.19298 | 38157 ft | 384 kts | 23° |
| 2026-04-14 20:29 | 36.98037 | -2.16181 | 38159 ft | 384 kts | 23° |
| 2026-04-14 20:29 | 37.02758 | -2.13045 | 38162 ft | 383 kts | 23° |
| 2026-04-14 20:30 | 37.07463 | -2.09912 | 38165 ft | 383 kts | 23° |
| 2026-04-14 20:30 | 37.12171 | -2.06773 | 38150 ft | 383 kts | 23° |
| 2026-04-14 20:31 | 37.16867 | -2.03637 | 38138 ft | 382 kts | 23° |
| 2026-04-14 20:31 | 37.21555 | -2.00503 | 38158 ft | 382 kts | 24° |
| 2026-04-14 20:32 | 37.26261 | -1.97438 | 38148 ft | 380 kts | 22° |
| 2026-04-14 20:32 | 37.30977 | -1.94426 | 38146 ft | 380 kts | 22° |
| 2026-04-14 20:33 | 37.35686 | -1.91407 | 38152 ft | 380 kts | 22° |
| 2026-04-14 20:33 | 37.40385 | -1.88388 | 38147 ft | 379 kts | 22° |
| 2026-04-14 20:34 | 37.47427 | -1.83856 | 38142 ft | 379 kts | 22° |
| 2026-04-14 20:34 | 37.52119 | -1.80831 | 38146 ft | 378 kts | 22° |
| 2026-04-14 20:35 | 37.56802 | -1.77808 | 38148 ft | 378 kts | 23° |
| 2026-04-14 20:35 | 37.61453 | -1.74801 | 38152 ft | 378 kts | 23° |
| 2026-04-14 20:36 | 37.66130 | -1.71773 | 38148 ft | 378 kts | 23° |
| 2026-04-14 20:36 | 37.70811 | -1.68737 | 38160 ft | 378 kts | 23° |
| 2026-04-14 20:37 | 37.75491 | -1.65699 | 38157 ft | 378 kts | 22° |
| 2026-04-14 20:37 | 37.80169 | -1.62657 | 38157 ft | 378 kts | 23° |
| 2026-04-14 20:38 | 37.84844 | -1.59613 | 38152 ft | 378 kts | 23° |
| 2026-04-14 20:38 | 37.89535 | -1.56556 | 38177 ft | 380 kts | 23° |
| 2026-04-14 20:39 | 37.94206 | -1.53450 | 38168 ft | 378 kts | 23° |
| 2026-04-14 20:39 | 37.98863 | -1.50352 | 38167 ft | 378 kts | 23° |
| 2026-04-14 20:40 | 38.02765 | -1.47753 | 38156 ft | 378 kts | 23° |
| 2026-04-14 20:40 | 38.07419 | -1.44650 | 38159 ft | 378 kts | 23° |
| 2026-04-14 20:41 | 38.12038 | -1.41565 | 38165 ft | 378 kts | 23° |
| 2026-04-14 20:41 | 38.16682 | -1.38459 | 38195 ft | 378 kts | 23° |
| 2026-04-14 20:42 | 38.21325 | -1.35350 | 38169 ft | 377 kts | 23° |
| 2026-04-14 20:43 | 38.28277 | -1.30685 | 38175 ft | 376 kts | 23° |
| 2026-04-14 20:43 | 38.32906 | -1.27574 | 38168 ft | 376 kts | 23° |
| 2026-04-14 20:44 | 38.37531 | -1.24461 | 38173 ft | 376 kts | 23° |
| 2026-04-14 20:44 | 38.42152 | -1.21346 | 38169 ft | 376 kts | 23° |
| 2026-04-14 20:45 | 38.46773 | -1.18226 | 38181 ft | 376 kts | 23° |
| 2026-04-14 20:45 | 38.51395 | -1.15101 | 38183 ft | 376 kts | 23° |
| 2026-04-14 20:46 | 38.56021 | -1.11969 | 38187 ft | 376 kts | 23° |
| 2026-04-14 20:46 | 38.60651 | -1.08829 | 38187 ft | 376 kts | 23° |
| 2026-04-14 20:47 | 38.65275 | -1.05689 | 38189 ft | 377 kts | 23° |
| 2026-04-14 20:47 | 38.69902 | -1.02544 | 38186 ft | 376 kts | 23° |
| 2026-04-14 20:48 | 38.74525 | -0.99394 | 38180 ft | 376 kts | 24° |
| 2026-04-14 20:48 | 38.79152 | -0.96236 | 38180 ft | 377 kts | 24° |
| 2026-04-14 20:49 | 38.83778 | -0.93075 | 38181 ft | 377 kts | 24° |
| 2026-04-14 20:49 | 38.88407 | -0.89908 | 38179 ft | 377 kts | 24° |
| 2026-04-14 20:50 | 38.93029 | -0.86740 | 38181 ft | 376 kts | 24° |
| 2026-04-14 20:50 | 38.97645 | -0.83573 | 38179 ft | 376 kts | 23° |
| 2026-04-14 20:51 | 39.02267 | -0.80396 | 38183 ft | 377 kts | 24° |
| 2026-04-14 20:51 | 39.06851 | -0.77240 | 38171 ft | 376 kts | 24° |
| 2026-04-14 20:52 | 39.11461 | -0.74061 | 38186 ft | 376 kts | 24° |
| 2026-04-14 20:52 | 39.16063 | -0.70883 | 38176 ft | 376 kts | 24° |
| 2026-04-14 20:53 | 39.20665 | -0.67701 | 38191 ft | 375 kts | 24° |
| 2026-04-14 20:53 | 39.25264 | -0.64517 | 38174 ft | 375 kts | 24° |
| 2026-04-14 20:54 | 39.29855 | -0.61332 | 38182 ft | 375 kts | 24° |
| 2026-04-14 20:54 | 39.34447 | -0.58142 | 38179 ft | 374 kts | 24° |
| 2026-04-14 20:55 | 39.39027 | -0.54956 | 38184 ft | 374 kts | 24° |
| 2026-04-14 20:55 | 39.43604 | -0.51767 | 38190 ft | 373 kts | 24° |
| 2026-04-14 20:56 | 39.48170 | -0.48565 | 38183 ft | 374 kts | 26° |
| 2026-04-14 20:56 | 39.52539 | -0.44861 | 38188 ft | 375 kts | 28° |
| 2026-04-14 20:57 | 39.56925 | -0.41202 | 38183 ft | 375 kts | 27° |
| 2026-04-14 20:57 | 39.61313 | -0.37557 | 38192 ft | 374 kts | 27° |
| 2026-04-14 20:58 | 39.65701 | -0.33909 | 38193 ft | 374 kts | 27° |
| 2026-04-14 20:58 | 39.70088 | -0.30259 | 38168 ft | 374 kts | 27° |
| 2026-04-14 20:59 | 39.74470 | -0.26605 | 38170 ft | 375 kts | 27° |
| 2026-04-14 20:59 | 39.78857 | -0.22943 | 38161 ft | 375 kts | 27° |
| 2026-04-14 21:00 | 39.83245 | -0.19274 | 38164 ft | 375 kts | 27° |
| 2026-04-14 21:00 | 39.87629 | -0.15602 | 38161 ft | 375 kts | 27° |
| 2026-04-14 21:01 | 39.91987 | -0.11947 | 38152 ft | 375 kts | 27° |
| 2026-04-14 21:01 | 39.96373 | -0.08262 | 38159 ft | 375 kts | 27° |
| 2026-04-14 21:02 | 40.00762 | -0.04569 | 38157 ft | 375 kts | 27° |
| 2026-04-14 21:02 | 40.05143 | -0.00878 | 38145 ft | 375 kts | 27° |
| 2026-04-14 21:03 | 40.09530 | 0.02825 | 38154 ft | 375 kts | 27° |
| 2026-04-14 21:03 | 40.13900 | 0.06519 | 38163 ft | 374 kts | 27° |
| 2026-04-14 21:04 | 40.18275 | 0.10222 | 38158 ft | 374 kts | 27° |
| 2026-04-14 21:04 | 40.22675 | 0.13847 | 38150 ft | 370 kts | 20° |
| 2026-04-14 21:05 | 40.27524 | 0.15875 | 38158 ft | 367 kts | 14° |
| 2026-04-14 21:05 | 40.32418 | 0.17782 | 38156 ft | 367 kts | 14° |
| 2026-04-14 21:06 | 40.37315 | 0.19636 | 38159 ft | 366 kts | 13° |
| 2026-04-14 21:06 | 40.42212 | 0.21478 | 38144 ft | 366 kts | 13° |
| 2026-04-14 21:07 | 40.47112 | 0.23323 | 38144 ft | 366 kts | 13° |
| 2026-04-14 21:07 | 40.52000 | 0.25166 | 38145 ft | 366 kts | 13° |
| 2026-04-14 21:08 | 40.56892 | 0.27014 | 38138 ft | 366 kts | 13° |
| 2026-04-14 21:08 | 40.61783 | 0.28864 | 38142 ft | 365 kts | 13° |
| 2026-04-14 21:09 | 40.66636 | 0.30703 | 38136 ft | 365 kts | 13° |
| 2026-04-14 21:09 | 40.71523 | 0.32557 | 38136 ft | 366 kts | 13° |
| 2026-04-14 21:10 | 40.76417 | 0.34418 | 38137 ft | 367 kts | 13° |
| 2026-04-14 21:10 | 40.81330 | 0.36288 | 38140 ft | 368 kts | 13° |
| 2026-04-14 21:11 | 40.86240 | 0.38160 | 38126 ft | 365 kts | 13° |
| 2026-04-14 21:11 | 40.91116 | 0.40023 | 38171 ft | 366 kts | 13° |
| 2026-04-14 21:12 | 40.96011 | 0.41895 | 38131 ft | 366 kts | 13° |
| 2026-04-14 21:12 | 41.00912 | 0.43773 | 38120 ft | 366 kts | 13° |
| 2026-04-14 21:13 | 41.05806 | 0.45652 | 38146 ft | 367 kts | 13° |
| 2026-04-14 21:13 | 41.10711 | 0.47538 | 38126 ft | 367 kts | 13° |
| 2026-04-14 21:14 | 41.18068 | 0.50369 | 38124 ft | 367 kts | 13° |
| 2026-04-14 21:14 | 41.22970 | 0.52260 | 38121 ft | 367 kts | 13° |
| 2026-04-14 21:15 | 41.27878 | 0.54155 | 38112 ft | 367 kts | 13° |
| 2026-04-14 21:15 | 41.32781 | 0.56052 | 38113 ft | 367 kts | 13° |
| 2026-04-14 21:16 | 41.37687 | 0.57954 | 38112 ft | 367 kts | 13° |
| 2026-04-14 21:16 | 41.42591 | 0.59858 | 38111 ft | 367 kts | 13° |
| 2026-04-14 21:17 | 41.47492 | 0.61763 | 38109 ft | 367 kts | 13° |
| 2026-04-14 21:17 | 41.52394 | 0.63673 | 38105 ft | 367 kts | 14° |
| 2026-04-14 21:18 | 41.57278 | 0.65296 | 37684 ft | 353 kts | 10° |
| 2026-04-14 21:18 | 41.59640 | 0.65965 | 37580 ft | 340 kts | 10° |
| 2026-04-14 21:18 | 41.61910 | 0.66622 | 37440 ft | 332 kts | 10° |
| 2026-04-14 21:19 | 41.64199 | 0.67293 | 37067 ft | 342 kts | 10° |
| 2026-04-14 21:19 | 41.66552 | 0.67970 | 36502 ft | 348 kts | 10° |
| 2026-04-14 21:19 | 41.68922 | 0.68632 | 35951 ft | 348 kts | 10° |
| 2026-04-14 21:19 | 41.71295 | 0.69299 | 35505 ft | 347 kts | 10° |
| 2026-04-14 21:20 | 41.73653 | 0.69963 | 35047 ft | 346 kts | 10° |
| 2026-04-14 21:20 | 41.75995 | 0.70624 | 34577 ft | 343 kts | 10° |
| 2026-04-14 21:20 | 41.78322 | 0.71281 | 34108 ft | 341 kts | 10° |
| 2026-04-14 21:20 | 41.80602 | 0.71925 | 33585 ft | 339 kts | 10° |
| 2026-04-14 21:21 | 41.82902 | 0.72576 | 33098 ft | 336 kts | 10° |
| 2026-04-14 21:21 | 41.85180 | 0.73220 | 32603 ft | 334 kts | 10° |
| 2026-04-14 21:21 | 41.87449 | 0.73862 | 32139 ft | 332 kts | 10° |
| 2026-04-14 21:21 | 41.89729 | 0.74508 | 31733 ft | 328 kts | 10° |
| 2026-04-14 21:22 | 41.91953 | 0.75138 | 31344 ft | 325 kts | 10° |
| 2026-04-14 21:22 | 41.94151 | 0.75762 | 30947 ft | 322 kts | 10° |
| 2026-04-14 21:22 | 41.96372 | 0.76392 | 30547 ft | 320 kts | 10° |
| 2026-04-14 21:22 | 41.98539 | 0.77008 | 30172 ft | 318 kts | 10° |
| 2026-04-14 21:23 | 42.00632 | 0.77603 | 29715 ft | 315 kts | 10° |
| 2026-04-14 21:23 | 42.02771 | 0.78211 | 29321 ft | 312 kts | 10° |
| 2026-04-14 21:23 | 42.04871 | 0.78809 | 28965 ft | 306 kts | 10° |
| 2026-04-14 21:23 | 42.06942 | 0.79399 | 28606 ft | 303 kts | 10° |
| 2026-04-14 21:24 | 42.09027 | 0.79993 | 28236 ft | 309 kts | 11° |
| 2026-04-14 21:24 | 42.11143 | 0.80597 | 27866 ft | 313 kts | 11° |
| 2026-04-14 21:24 | 42.13281 | 0.81207 | 27515 ft | 314 kts | 11° |
| 2026-04-14 21:24 | 42.15421 | 0.81817 | 27153 ft | 314 kts | 11° |
| 2026-04-14 21:25 | 42.16835 | 0.82222 | 26917 ft | 314 kts | 11° |
| 2026-04-14 21:25 | 42.18965 | 0.82830 | 26559 ft | 313 kts | 11° |
| 2026-04-14 21:25 | 42.21782 | 0.83637 | 26094 ft | 312 kts | 11° |
| 2026-04-14 21:25 | 42.23215 | 0.84047 | 25857 ft | 312 kts | 11° |
| 2026-04-14 21:26 | 42.25332 | 0.84654 | 25508 ft | 311 kts | 11° |
| 2026-04-14 21:26 | 42.27445 | 0.85260 | 25166 ft | 310 kts | 11° |
| 2026-04-14 21:26 | 42.29556 | 0.85865 | 24825 ft | 310 kts | 11° |
| 2026-04-14 21:26 | 42.31661 | 0.86469 | 24481 ft | 309 kts | 11° |
| 2026-04-14 21:27 | 42.33767 | 0.87074 | 24129 ft | 309 kts | 11° |
| 2026-04-14 21:27 | 42.35873 | 0.87680 | 23797 ft | 309 kts | 11° |
| 2026-04-14 21:27 | 42.37974 | 0.88284 | 23388 ft | 308 kts | 12° |
| 2026-04-14 21:27 | 42.40118 | 0.88901 | 23010 ft | 305 kts | 11° |
| 2026-04-14 21:28 | 42.42177 | 0.89494 | 22680 ft | 300 kts | 11° |
| 2026-04-14 21:28 | 42.44185 | 0.90073 | 22350 ft | 297 kts | 11° |
| 2026-04-14 21:28 | 42.46227 | 0.90662 | 21963 ft | 296 kts | 11° |
| 2026-04-14 21:28 | 42.48257 | 0.91247 | 21642 ft | 292 kts | 11° |
| 2026-04-14 21:29 | 42.50268 | 0.91827 | 21333 ft | 291 kts | 11° |
| 2026-04-14 21:29 | 42.52265 | 0.92404 | 21023 ft | 296 kts | 11° |
| 2026-04-14 21:29 | 42.54296 | 0.92990 | 20688 ft | 300 kts | 11° |
| 2026-04-14 21:29 | 42.56334 | 0.93580 | 20372 ft | 300 kts | 12° |
| 2026-04-14 21:30 | 42.58378 | 0.94171 | 20039 ft | 298 kts | 11° |
| 2026-04-14 21:30 | 42.60441 | 0.94768 | 19723 ft | 295 kts | 11° |
| 2026-04-14 21:30 | 42.62443 | 0.95349 | 19415 ft | 293 kts | 11° |
| 2026-04-14 21:30 | 42.64433 | 0.95925 | 19093 ft | 292 kts | 11° |
| 2026-04-14 21:31 | 42.66410 | 0.96499 | 18779 ft | 290 kts | 11° |
| 2026-04-14 21:31 | 42.68377 | 0.97070 | 18463 ft | 287 kts | 12° |
| 2026-04-14 21:31 | 42.70319 | 0.97634 | 18113 ft | 285 kts | 12° |
| 2026-04-14 21:31 | 42.72249 | 0.98194 | 17781 ft | 283 kts | 11° |
| 2026-04-14 21:32 | 42.74161 | 0.98751 | 17476 ft | 279 kts | 12° |
| 2026-04-14 21:32 | 42.76053 | 0.99301 | 17167 ft | 278 kts | 12° |
| 2026-04-14 21:32 | 42.77954 | 0.99656 | 16831 ft | 275 kts | 359° |
| 2026-04-14 21:32 | 42.79850 | 0.99521 | 16553 ft | 272 kts | 358° |
| 2026-04-14 21:33 | 42.81727 | 0.99386 | 16265 ft | 277 kts | 358° |
| 2026-04-14 21:33 | 42.83664 | 0.99240 | 15964 ft | 281 kts | 358° |
| 2026-04-14 21:33 | 42.85621 | 0.99090 | 15651 ft | 282 kts | 358° |
| 2026-04-14 21:33 | 42.87580 | 0.98939 | 15353 ft | 281 kts | 358° |
| 2026-04-14 21:34 | 42.89524 | 0.98790 | 15041 ft | 279 kts | 358° |
| 2026-04-14 21:34 | 42.91456 | 0.98639 | 14742 ft | 278 kts | 358° |
| 2026-04-14 21:34 | 42.93382 | 0.98489 | 14436 ft | 277 kts | 358° |
| 2026-04-14 21:34 | 42.95297 | 0.98339 | 14112 ft | 274 kts | 358° |
| 2026-04-14 21:35 | 42.97195 | 0.98191 | 13771 ft | 271 kts | 358° |
| 2026-04-14 21:35 | 42.99043 | 0.98106 | 13457 ft | 268 kts | 6° |
| 2026-04-14 21:35 | 43.00797 | 0.98879 | 13131 ft | 267 kts | 28° |
| 2026-04-14 21:35 | 43.02379 | 1.00177 | 12873 ft | 263 kts | 29° |
| 2026-04-14 21:36 | 43.03934 | 1.01473 | 12614 ft | 263 kts | 30° |
| 2026-04-14 21:36 | 43.05509 | 1.02807 | 12337 ft | 269 kts | 30° |
| 2026-04-14 21:36 | 43.07108 | 1.04178 | 12054 ft | 272 kts | 30° |
| 2026-04-14 21:36 | 43.08712 | 1.05563 | 11770 ft | 272 kts | 30° |
| 2026-04-14 21:37 | 43.10312 | 1.06952 | 11483 ft | 273 kts | 30° |
| 2026-04-14 21:37 | 43.11912 | 1.08345 | 11196 ft | 272 kts | 30° |
| 2026-04-14 21:37 | 43.13486 | 1.09717 | 10916 ft | 272 kts | 30° |
| 2026-04-14 21:37 | 43.15100 | 1.11125 | 10631 ft | 271 kts | 30° |
| 2026-04-14 21:38 | 43.16659 | 1.12488 | 10405 ft | 267 kts | 30° |
| 2026-04-14 21:38 | 43.18208 | 1.13843 | 10171 ft | 262 kts | 30° |
| 2026-04-14 21:38 | 43.19738 | 1.15182 | 9863 ft | 260 kts | 30° |
| 2026-04-14 21:38 | 43.21260 | 1.16514 | 9569 ft | 258 kts | 30° |
| 2026-04-14 21:39 | 43.22763 | 1.17831 | 9271 ft | 255 kts | 30° |
| 2026-04-14 21:39 | 43.24248 | 1.19132 | 9007 ft | 252 kts | 30° |
| 2026-04-14 21:39 | 43.25716 | 1.20421 | 8735 ft | 249 kts | 30° |
| 2026-04-14 21:39 | 43.27169 | 1.21695 | 8473 ft | 247 kts | 30° |
| 2026-04-14 21:40 | 43.28614 | 1.22997 | 8244 ft | 253 kts | 36° |
| 2026-04-14 21:40 | 43.29750 | 1.24875 | 7972 ft | 261 kts | 56° |
| 2026-04-14 21:40 | 43.30685 | 1.26985 | 7765 ft | 263 kts | 56° |
| 2026-04-14 21:40 | 43.31631 | 1.29129 | 7545 ft | 263 kts | 56° |
| 2026-04-14 21:41 | 43.32572 | 1.31282 | 7325 ft | 263 kts | 56° |
| 2026-04-14 21:41 | 43.33509 | 1.33442 | 7089 ft | 262 kts | 56° |
| 2026-04-14 21:41 | 43.34433 | 1.35582 | 6855 ft | 259 kts | 57° |
| 2026-04-14 21:41 | 43.35342 | 1.37692 | 6610 ft | 255 kts | 57° |
| 2026-04-14 21:42 | 43.36239 | 1.39778 | 6389 ft | 251 kts | 57° |
| 2026-04-14 21:42 | 43.37121 | 1.41832 | 6157 ft | 247 kts | 57° |
| 2026-04-14 21:42 | 43.37987 | 1.43849 | 5935 ft | 243 kts | 57° |
| 2026-04-14 21:42 | 43.38840 | 1.45838 | 5703 ft | 239 kts | 57° |
| 2026-04-14 21:43 | 43.39818 | 1.47574 | 5380 ft | 235 kts | 35° |
| 2026-04-14 21:43 | 43.41171 | 1.48818 | 5105 ft | 232 kts | 31° |
| 2026-04-14 21:43 | 43.42519 | 1.50036 | 4858 ft | 225 kts | 30° |
| 2026-04-14 21:43 | 43.43806 | 1.51191 | 4663 ft | 218 kts | 30° |
| 2026-04-14 21:44 | 43.45061 | 1.52295 | 4446 ft | 217 kts | 25° |
| 2026-04-14 21:44 | 43.46494 | 1.52736 | 4130 ft | 212 kts | 351° |
| 2026-04-14 21:44 | 43.47847 | 1.52031 | 3843 ft | 209 kts | 326° |
| 2026-04-14 21:44 | 43.49032 | 1.50899 | 3609 ft | 206 kts | 326° |
| 2026-04-14 21:45 | 43.50200 | 1.49796 | 3375 ft | 200 kts | 324° |
| 2026-04-14 21:45 | 43.51297 | 1.48692 | 3106 ft | 191 kts | 322° |
| 2026-04-14 21:45 | 43.52341 | 1.47608 | 2834 ft | 184 kts | 322° |
| 2026-04-14 21:45 | 43.53344 | 1.46567 | 2572 ft | 177 kts | 322° |
| 2026-04-14 21:46 | 43.54310 | 1.45563 | 2334 ft | 170 kts | 322° |
| 2026-04-14 21:46 | 43.55238 | 1.44599 | 2112 ft | 164 kts | 322° |
| 2026-04-14 21:46 | 43.56118 | 1.43685 | 1926 ft | 155 kts | 322° |
| 2026-04-14 21:46 | 43.56944 | 1.42825 | 1723 ft | 146 kts | 322° |
| 2026-04-14 21:47 | 43.57726 | 1.42012 | 1507 ft | 136 kts | 322° |
| 2026-04-14 21:47 | 43.58467 | 1.41242 | 1303 ft | 132 kts | 322° |
| 2026-04-14 21:47 | 43.59200 | 1.40477 | 1117 ft | 133 kts | 322° |
| 2026-04-14 21:47 | 43.59936 | 1.39712 | 943 ft | 133 kts | 322° |
| 2026-04-14 21:48 | 43.60673 | 1.38946 | 756 ft | 132 kts | 322° |
| 2026-04-14 21:48 | 43.61399 | 1.38190 | 584 ft | 129 kts | 322° |
| 2026-04-14 21:48 | 43.62086 | 1.37468 | 488 ft | 109 kts | 322° |
| 2026-04-14 21:48 | 43.62502 | 1.37045 | 488 ft | 35 kts | 323° |
| 2026-04-14 21:49 | 43.62694 | 1.36845 | 485 ft | 33 kts | 323° |
| 2026-04-14 21:49 | 43.62862 | 1.36673 | 488 ft | 26 kts | 323° |
| 2026-04-14 21:49 | 43.63024 | 1.36660 | 490 ft | 24 kts | 32° |
| 2026-04-14 21:49 | 43.63100 | 1.36791 | 487 ft | 14 kts | 54° |
| 2026-04-14 21:50 | 43.63135 | 1.36865 | 490 ft | 11 kts | 59° |
| 2026-04-14 21:50 | 43.63159 | 1.36948 | 495 ft | 3 kts | 77° |
| 2026-04-14 21:50 | 43.63168 | 1.36982 | 491 ft | 0 kts | 70° |